createdAt,value
2023-03-20T00:02:28.126Z,26.83
2023-03-20T00:04:57.209Z,30.77
2023-03-20T00:07:26.256Z,29.70
2023-03-20T00:09:55.181Z,31.10
2023-03-20T00:12:27.260Z,31.33
2023-03-20T00:14:56.082Z,30.07
2023-03-20T00:17:25.181Z,32.40
2023-03-20T00:19:54.210Z,31.67
2023-03-20T00:22:23.065Z,31.60
2023-03-20T00:24:51.643Z,33.27
2023-03-20T00:27:20.231Z,34.67
2023-03-20T00:29:50.306Z,33.80
2023-03-20T00:32:19.099Z,33.90
2023-03-20T00:34:48.898Z,34.00
2023-03-20T00:37:17.445Z,34.83
2023-03-20T00:39:46.004Z,36.10
2023-03-20T00:42:23.441Z,36.13
2023-03-20T00:44:55.965Z,37.47
2023-03-20T00:47:25.821Z,34.70
2023-03-20T00:49:56.046Z,33.43
2023-03-20T00:52:25.314Z,34.30
2023-03-20T00:54:53.902Z,34.10
2023-03-20T00:57:27.306Z,33.13
2023-03-20T01:00:01.533Z,31.03
2023-03-20T01:02:31.460Z,31.73
2023-03-20T01:05:00.859Z,32.57
2023-03-20T01:07:29.417Z,32.90
2023-03-20T01:09:57.947Z,31.90
2023-03-20T01:12:27.492Z,32.47
2023-03-20T01:15:00.215Z,31.90
2023-03-20T01:17:30.885Z,31.57
2023-03-20T01:19:59.422Z,31.43
2023-03-20T01:22:27.938Z,30.93
2023-03-20T01:24:56.418Z,31.77
2023-03-20T01:27:24.993Z,29.40
2023-03-20T01:29:53.923Z,28.93
2023-03-20T01:32:23.800Z,31.17
2023-03-20T01:34:53.291Z,29.13
2023-03-20T01:37:26.844Z,30.40
2023-03-20T01:39:57.369Z,30.07
2023-03-20T01:42:26.780Z,29.53
2023-03-20T01:44:55.882Z,28.10
2023-03-20T01:47:27.940Z,29.00
2023-03-20T01:50:23.067Z,29.23
2023-03-20T01:52:55.530Z,25.77
2023-03-20T01:55:25.219Z,25.50
2023-03-20T01:57:56.466Z,24.73
2023-03-20T02:00:25.848Z,23.17
2023-03-20T02:02:56.259Z,24.50
2023-03-20T02:05:25.643Z,22.27
2023-03-20T02:08:03.979Z,20.93
2023-03-20T02:10:32.691Z,20.17
2023-03-20T02:13:03.275Z,19.83
2023-03-20T02:15:32.512Z,20.83
2023-03-20T02:18:02.550Z,20.13
2023-03-20T02:20:46.434Z,19.67
2023-03-20T02:23:48.580Z,17.97
2023-03-20T02:26:48.264Z,18.20
2023-03-20T02:29:46.775Z,20.03
2023-03-20T02:32:57.280Z,18.97
2023-03-20T02:35:57.064Z,17.97
2023-03-20T02:38:40.662Z,16.43
2023-03-20T02:41:18.952Z,18.17
2023-03-20T02:43:54.723Z,19.07
2023-03-20T02:46:32.400Z,17.77
2023-03-20T02:49:07.123Z,17.73
2023-03-20T02:51:41.731Z,17.37
2023-03-20T02:54:21.329Z,19.03
2023-03-20T02:56:57.921Z,19.03
2023-03-20T02:59:33.785Z,18.77
2023-03-20T03:02:08.759Z,17.93
2023-03-20T03:04:40.665Z,17.23
2023-03-20T03:07:12.158Z,18.70
2023-03-20T03:09:47.061Z,17.93
2023-03-20T03:12:19.531Z,16.73
2023-03-20T03:14:50.880Z,16.33
2023-03-20T03:17:23.555Z,16.33
2023-03-20T03:19:56.550Z,16.67
2023-03-20T03:22:25.820Z,15.83
2023-03-20T03:24:56.725Z,16.50
2023-03-20T03:27:28.456Z,16.20
2023-03-20T03:29:59.933Z,16.77
2023-03-20T03:32:33.122Z,17.30
2023-03-20T03:35:03.030Z,15.57
2023-03-20T03:37:41.934Z,17.93
2023-03-20T03:40:21.096Z,16.70
2023-03-20T03:42:57.282Z,16.70
2023-03-20T03:45:32.956Z,16.93
2023-03-20T03:48:07.835Z,18.33
2023-03-20T03:50:46.559Z,15.53
2023-03-20T03:53:16.846Z,16.97
2023-03-20T03:55:51.584Z,16.20
2023-03-20T03:58:24.726Z,15.77
2023-03-20T04:00:56.202Z,15.53
2023-03-20T04:03:30.028Z,15.70
2023-03-20T04:06:00.121Z,16.13
2023-03-20T04:08:28.906Z,14.93
2023-03-20T04:10:59.337Z,16.00
2023-03-20T04:13:28.035Z,15.73
2023-03-20T04:15:56.596Z,14.73
2023-03-20T04:18:26.034Z,15.70
2023-03-20T04:20:54.862Z,18.17
2023-03-20T04:23:23.392Z,15.77
2023-03-20T04:25:51.916Z,13.47
2023-03-20T04:28:21.890Z,15.60
2023-03-20T04:30:54.753Z,13.90
2023-03-20T04:33:23.408Z,15.73
2023-03-20T04:35:52.660Z,14.67
2023-03-20T04:38:23.276Z,16.10
2023-03-20T04:40:52.014Z,15.77
2023-03-20T04:43:21.925Z,14.93
2023-03-20T04:45:50.626Z,14.77
2023-03-20T04:48:19.159Z,13.87
2023-03-20T04:50:48.582Z,15.37
2023-03-20T04:53:17.420Z,13.87
2023-03-20T04:55:46.339Z,12.90
2023-03-20T04:58:16.908Z,13.90
2023-03-20T05:00:47.111Z,15.57
2023-03-20T05:03:15.613Z,14.90
2023-03-20T05:05:44.172Z,16.97
2023-03-20T05:08:13.237Z,15.93
2023-03-20T05:10:41.883Z,14.80
2023-03-20T05:13:10.657Z,15.07
2023-03-20T05:15:39.353Z,13.97
2023-03-20T05:18:09.855Z,13.53
2023-03-20T05:20:38.252Z,16.63
2023-03-20T05:23:07.616Z,15.93
2023-03-20T05:25:36.757Z,14.43
2023-03-20T05:28:05.699Z,12.17
2023-03-20T05:30:34.395Z,12.97
2023-03-20T05:33:02.954Z,13.27
2023-03-20T05:35:33.039Z,11.90
2023-03-20T05:38:01.645Z,13.43
2023-03-20T05:40:30.224Z,12.67
2023-03-20T05:42:59.354Z,13.47
2023-03-20T05:45:27.859Z,12.60
2023-03-20T05:47:56.410Z,13.83
2023-03-20T05:50:25.582Z,14.33
2023-03-20T05:52:55.996Z,14.90
2023-03-20T05:55:24.657Z,14.27
2023-03-20T05:57:53.157Z,14.23
2023-03-20T06:00:22.118Z,14.27
2023-03-20T06:02:50.967Z,14.23
2023-03-20T06:05:19.540Z,16.80
2023-03-20T06:07:48.097Z,16.03
2023-03-20T06:10:20.142Z,17.43
2023-03-20T06:12:49.017Z,21.40
2023-03-20T06:15:17.660Z,18.80
2023-03-20T06:17:46.157Z,19.47
2023-03-20T06:20:15.252Z,18.63
2023-03-20T06:22:44.080Z,20.33
2023-03-20T06:25:12.709Z,20.03
2023-03-20T06:27:42.693Z,20.13
2023-03-20T06:30:12.663Z,19.90
2023-03-20T06:32:41.454Z,19.27
2023-03-20T06:35:11.083Z,20.80
2023-03-20T06:37:39.707Z,19.53
2023-03-20T06:40:10.111Z,24.03
2023-03-20T06:42:38.870Z,22.03
2023-03-20T06:45:11.310Z,21.80
2023-03-20T06:47:39.892Z,21.87
2023-03-20T06:50:10.441Z,20.30
2023-03-20T06:52:40.010Z,22.13
2023-03-20T06:55:09.184Z,22.90
2023-03-20T06:57:37.702Z,20.87
2023-03-20T07:00:08.123Z,22.87
2023-03-20T07:02:38.212Z,25.37
2023-03-20T07:05:08.376Z,21.20
2023-03-20T07:07:37.219Z,20.57
2023-03-20T07:10:07.583Z,19.67
2023-03-20T07:12:36.079Z,19.37
2023-03-20T07:15:05.929Z,17.93
2023-03-20T07:17:35.099Z,16.73
2023-03-20T07:20:05.784Z,17.77
2023-03-20T07:22:34.362Z,14.97
2023-03-20T07:25:03.715Z,16.27
2023-03-20T07:27:32.297Z,12.10
2023-03-20T07:30:00.863Z,13.80
2023-03-20T07:32:29.886Z,11.00
2023-03-20T07:34:59.360Z,13.37
2023-03-20T07:37:29.336Z,9.73
2023-03-20T07:39:57.907Z,9.20
2023-03-20T07:42:27.139Z,11.80
2023-03-20T07:44:56.065Z,9.97
2023-03-20T07:47:24.737Z,11.47
2023-03-20T07:49:54.315Z,8.93
2023-03-20T07:52:23.939Z,11.67
2023-03-20T07:54:53.984Z,9.53
2023-03-20T07:57:22.528Z,9.73
2023-03-20T07:59:51.134Z,9.07
2023-03-20T08:02:20.576Z,10.40
2023-03-20T08:04:49.188Z,9.40
2023-03-20T08:07:18.193Z,10.63
2023-03-20T08:09:47.453Z,9.17
2023-03-20T08:12:18.178Z,13.30
2023-03-20T08:14:46.757Z,11.17
2023-03-20T08:17:18.729Z,15.37
2023-03-20T08:19:49.981Z,11.63
2023-03-20T08:22:18.807Z,12.93
2023-03-20T08:24:47.399Z,12.00
2023-03-20T08:27:17.870Z,10.73
2023-03-20T08:29:46.458Z,12.70
2023-03-20T08:32:15.116Z,9.00
2023-03-20T08:34:43.932Z,12.17
2023-03-20T08:37:14.241Z,12.03
2023-03-20T08:39:42.928Z,10.93
2023-03-20T08:42:11.649Z,9.30
2023-03-20T08:44:41.770Z,9.73
2023-03-20T08:47:12.305Z,13.07
2023-03-20T08:49:40.861Z,9.43
2023-03-20T08:52:10.091Z,8.90
2023-03-20T08:54:38.731Z,9.50
2023-03-20T08:57:07.632Z,9.07
2023-03-20T08:59:36.291Z,8.20
2023-03-20T09:02:07.233Z,9.20
2023-03-20T09:04:35.935Z,7.73
2023-03-20T09:07:05.147Z,9.03
2023-03-20T09:09:34.702Z,10.37
2023-03-20T09:12:03.451Z,9.00
2023-03-20T09:14:32.098Z,7.90
2023-03-20T09:17:01.556Z,10.27
2023-03-20T09:19:31.933Z,7.40
2023-03-20T09:22:01.719Z,8.90
2023-03-20T09:24:31.553Z,6.40
2023-03-20T09:27:03.705Z,6.53
2023-03-20T09:29:32.537Z,7.13
2023-03-20T09:32:05.313Z,6.67
2023-03-20T09:34:35.388Z,8.47
2023-03-20T09:37:04.335Z,9.40
2023-03-20T09:39:33.464Z,10.47
2023-03-20T09:42:09.246Z,7.33
2023-03-20T09:44:50.274Z,4.70
2023-03-20T09:47:24.319Z,6.63
2023-03-20T09:50:03.724Z,6.53
2023-03-20T09:52:34.569Z,6.90
2023-03-20T09:55:08.411Z,6.47
2023-03-20T09:57:41.370Z,5.23
2023-03-20T10:00:19.635Z,5.67
2023-03-20T10:02:54.272Z,5.37
2023-03-20T10:05:29.253Z,4.23
2023-03-20T10:07:59.972Z,7.77
2023-03-20T10:10:38.077Z,5.73
2023-03-20T10:13:19.338Z,5.70
2023-03-20T10:15:54.197Z,6.40
2023-03-20T10:18:27.945Z,6.60
2023-03-20T10:21:01.287Z,7.83
2023-03-20T10:23:37.490Z,7.07
2023-03-20T10:26:11.940Z,5.00
2023-03-20T10:28:47.759Z,6.03
2023-03-20T10:31:31.103Z,6.53
2023-03-20T10:34:23.923Z,6.10
2023-03-20T10:37:10.022Z,6.87
2023-03-20T10:39:53.558Z,6.20
2023-03-20T10:42:25.070Z,6.20
2023-03-20T10:44:59.804Z,5.90
2023-03-20T10:47:31.797Z,6.03
2023-03-20T10:50:04.816Z,7.27
2023-03-20T10:52:39.687Z,6.43
2023-03-20T10:55:13.349Z,5.27
2023-03-20T10:57:48.749Z,5.00
2023-03-20T11:00:23.495Z,6.47
2023-03-20T11:02:52.530Z,5.17
2023-03-20T11:05:29.875Z,5.43
2023-03-20T11:08:07.117Z,4.83
2023-03-20T11:10:37.479Z,7.43
2023-03-20T11:13:19.559Z,7.57
2023-03-20T11:15:48.400Z,5.73
2023-03-20T11:18:17.580Z,6.83
2023-03-20T11:20:51.149Z,5.67
2023-03-20T11:23:25.677Z,6.43
2023-03-20T11:26:00.013Z,7.27
2023-03-20T11:28:33.865Z,7.03
2023-03-20T11:31:06.873Z,5.17
2023-03-20T11:33:39.763Z,7.53
2023-03-20T11:36:27.639Z,7.40
2023-03-20T11:39:06.146Z,5.23
2023-03-20T11:41:35.507Z,6.73
2023-03-20T11:44:04.169Z,6.00
2023-03-20T11:46:33.093Z,7.10
2023-03-20T11:49:11.633Z,5.57
2023-03-20T11:51:41.194Z,8.83
2023-03-20T11:54:17.948Z,4.77
2023-03-20T11:56:55.067Z,7.90
2023-03-20T11:59:27.502Z,8.17
2023-03-20T12:02:01.212Z,6.60
2023-03-20T12:04:34.400Z,7.03
2023-03-20T12:07:11.348Z,4.93
2023-03-20T12:09:46.303Z,5.63
2023-03-20T12:12:26.425Z,6.13
2023-03-20T12:14:59.216Z,5.70
2023-03-20T12:17:55.728Z,5.23
2023-03-20T12:20:38.208Z,4.97
2023-03-20T12:23:16.527Z,5.40
2023-03-20T12:25:55.147Z,6.60
2023-03-20T12:28:29.679Z,4.83
2023-03-20T12:31:09.735Z,6.97
2023-03-20T12:33:51.814Z,4.50
2023-03-20T12:36:28.647Z,5.43
2023-03-20T12:38:58.208Z,4.90
2023-03-20T12:41:36.456Z,5.77
2023-03-20T12:44:27.715Z,5.77
2023-03-20T12:47:07.318Z,6.13
2023-03-20T12:49:47.304Z,9.37
2023-03-20T12:52:28.368Z,6.13
2023-03-20T12:55:26.160Z,9.33
2023-03-20T12:58:09.712Z,6.93
2023-03-20T13:00:46.067Z,9.03
2023-03-20T13:03:29.727Z,5.87
2023-03-20T13:06:06.096Z,7.33
2023-03-20T13:08:56.307Z,5.80
2023-03-20T13:11:37.215Z,6.00
2023-03-20T13:14:16.139Z,6.93
2023-03-20T13:16:53.860Z,9.50
2023-03-20T13:19:30.430Z,7.10
2023-03-20T13:22:06.146Z,7.20
2023-03-20T13:24:40.586Z,7.37
2023-03-20T13:27:28.516Z,6.17
2023-03-20T13:30:05.368Z,8.43
2023-03-20T13:32:47.553Z,8.67
2023-03-20T13:35:37.891Z,9.37
2023-03-20T13:38:14.644Z,9.00
2023-03-20T13:40:47.731Z,7.10
2023-03-20T13:43:26.516Z,7.03
2023-03-20T13:46:03.247Z,5.43
2023-03-20T13:48:36.246Z,5.37
2023-03-20T13:51:15.802Z,7.17
2023-03-20T13:53:56.835Z,8.13
2023-03-20T13:56:38.708Z,8.80
2023-03-20T13:59:24.766Z,7.23
2023-03-20T14:02:09.800Z,7.33
2023-03-20T14:04:39.402Z,7.33
2023-03-20T14:07:30.060Z,6.67
2023-03-20T14:09:58.970Z,7.53
2023-03-20T14:12:28.799Z,7.80
2023-03-20T14:15:01.099Z,9.63
2023-03-20T14:17:33.210Z,12.67
2023-03-20T14:20:14.597Z,8.20
2023-03-20T14:22:45.501Z,7.73
2023-03-20T14:25:21.057Z,9.83
2023-03-20T14:27:58.848Z,10.03
2023-03-20T14:30:46.340Z,9.07
2023-03-20T14:33:36.199Z,11.23
2023-03-20T14:36:29.852Z,8.93
2023-03-20T14:39:24.164Z,10.20
2023-03-20T14:42:23.772Z,8.70
2023-03-20T14:45:33.036Z,8.60
2023-03-20T14:48:09.377Z,7.70
2023-03-20T14:50:43.925Z,11.50
2023-03-20T14:53:18.871Z,8.83
2023-03-20T14:56:11.988Z,7.63
2023-03-20T14:58:50.929Z,10.20
2023-03-20T15:01:30.748Z,10.70
2023-03-20T15:04:03.719Z,8.80
2023-03-20T15:06:35.661Z,8.17
2023-03-20T15:09:13.287Z,8.57
2023-03-20T15:11:44.897Z,9.80
2023-03-20T15:14:21.436Z,8.20
2023-03-20T15:16:52.496Z,8.37
2023-03-20T15:19:21.936Z,7.00
2023-03-20T15:21:52.507Z,10.60
2023-03-20T15:24:23.712Z,10.57
2023-03-20T15:26:58.162Z,8.83
2023-03-20T15:29:28.368Z,9.10
2023-03-20T15:32:12.898Z,8.57
2023-03-20T15:34:44.341Z,10.20
2023-03-20T15:37:21.245Z,6.37
2023-03-20T15:39:52.449Z,9.87
2023-03-20T15:42:25.373Z,9.70
2023-03-20T15:44:56.344Z,9.97
2023-03-20T15:47:26.305Z,8.20
2023-03-20T15:49:57.105Z,8.87
2023-03-20T15:52:33.486Z,13.97
2023-03-20T15:55:07.388Z,9.97
2023-03-20T15:57:37.957Z,11.57
2023-03-20T16:00:16.454Z,11.47
2023-03-20T16:02:48.480Z,12.27
2023-03-20T16:05:19.932Z,12.30
2023-03-20T16:07:50.448Z,13.80
2023-03-20T16:10:22.174Z,12.97
2023-03-20T16:12:54.662Z,12.60
2023-03-20T16:15:28.207Z,15.67
2023-03-20T16:17:59.810Z,8.10
2023-03-20T16:20:34.402Z,10.03
2023-03-20T16:23:09.402Z,17.13
2023-03-20T16:25:40.622Z,11.07
2023-03-20T16:28:09.874Z,14.33
2023-03-20T16:30:39.486Z,11.20
2023-03-20T16:33:14.049Z,15.17
2023-03-20T16:35:46.766Z,16.80
2023-03-20T16:38:27.304Z,13.93
2023-03-20T16:40:58.610Z,13.67
2023-03-20T16:43:32.424Z,15.07
2023-03-20T16:46:08.703Z,15.47
2023-03-20T16:48:39.962Z,10.73
2023-03-20T16:51:18.401Z,12.20
2023-03-20T16:53:50.176Z,10.83
2023-03-20T16:56:23.812Z,10.27
2023-03-20T16:58:56.439Z,11.60
2023-03-20T17:01:28.357Z,12.83
2023-03-20T17:03:59.456Z,16.53
2023-03-20T17:06:39.119Z,11.00
2023-03-20T17:09:24.997Z,13.63
2023-03-20T17:12:03.791Z,10.73
2023-03-20T17:14:37.666Z,15.17
2023-03-20T17:17:13.318Z,13.43
2023-03-20T17:19:42.376Z,13.83
2023-03-20T17:22:18.251Z,11.73
2023-03-20T17:24:49.027Z,16.53
2023-03-20T17:27:20.037Z,15.33
2023-03-20T17:29:50.651Z,17.77
2023-03-20T17:32:20.937Z,14.63
2023-03-20T17:34:49.794Z,16.37
2023-03-20T17:37:24.647Z,13.63
2023-03-20T17:39:55.686Z,16.50
2023-03-20T17:42:31.872Z,15.80
2023-03-20T17:45:01.399Z,14.67
2023-03-20T17:47:30.956Z,12.73
2023-03-20T17:49:59.912Z,12.87
2023-03-20T17:52:30.607Z,13.87
2023-03-20T17:55:00.956Z,17.57
2023-03-20T17:57:34.961Z,21.10
2023-03-20T18:00:09.222Z,16.93
2023-03-20T18:02:38.200Z,17.07
2023-03-20T18:05:08.960Z,15.07
2023-03-20T18:07:37.873Z,14.10
2023-03-20T18:10:15.005Z,14.57
2023-03-20T18:12:44.330Z,12.43
2023-03-20T18:15:15.966Z,13.00
2023-03-20T18:17:47.790Z,10.90
2023-03-20T18:20:27.561Z,13.30
2023-03-20T18:22:56.746Z,9.47
2023-03-20T18:25:31.092Z,14.80
2023-03-20T18:28:02.069Z,12.40
2023-03-20T18:30:39.481Z,19.37
2023-03-20T18:33:12.726Z,11.23
2023-03-20T18:35:42.019Z,12.10
2023-03-20T18:38:14.652Z,12.03
2023-03-20T18:40:47.777Z,11.93
2023-03-20T18:43:16.606Z,15.27
2023-03-20T18:45:46.452Z,13.70
2023-03-20T18:48:16.641Z,10.10
2023-03-20T18:50:51.272Z,12.07
2023-03-20T18:53:23.091Z,13.33
2023-03-20T18:55:53.814Z,11.17
2023-03-20T18:58:26.205Z,12.73
2023-03-20T19:00:57.173Z,10.20
2023-03-20T19:03:30.584Z,13.90
2023-03-20T19:06:00.734Z,12.63
2023-03-20T19:08:34.324Z,10.63
2023-03-20T19:11:10.211Z,16.70
2023-03-20T19:13:39.604Z,14.03
2023-03-20T19:16:23.597Z,10.00
2023-03-20T19:18:56.767Z,12.13
2023-03-20T19:21:29.723Z,18.03
2023-03-20T19:24:08.196Z,14.40
2023-03-20T19:26:39.208Z,14.83
2023-03-20T19:29:11.188Z,16.17
2023-03-20T19:31:42.255Z,13.67
2023-03-20T19:34:44.359Z,12.07
2023-03-20T19:37:03.824Z,13.47
2023-03-20T19:39:33.066Z,12.80
2023-03-20T19:42:32.168Z,11.63
2023-03-20T19:44:59.391Z,11.17
2023-03-20T19:47:28.585Z,12.63
2023-03-20T19:50:05.796Z,16.00
2023-03-20T19:52:50.212Z,15.03
2023-03-20T19:55:25.059Z,15.33
2023-03-20T19:57:58.212Z,9.83
2023-03-20T20:03:23.140Z,13.17
2023-03-20T20:06:00.187Z,15.73
2023-03-20T20:08:45.153Z,15.57
2023-03-20T20:11:17.822Z,15.30
2023-03-20T20:14:08.059Z,14.17
2023-03-20T20:16:40.360Z,18.53
2023-03-20T20:19:09.498Z,19.43
2023-03-20T20:22:17.304Z,23.70
2023-03-20T20:24:28.622Z,12.40
2023-03-20T20:27:17.468Z,18.60
2023-03-20T20:29:51.136Z,12.83
2023-03-20T20:32:23.583Z,15.00
2023-03-20T20:40:34.456Z,14.93
2023-03-20T20:43:09.999Z,20.33
2023-03-20T20:45:41.300Z,12.60
2023-03-20T20:48:10.588Z,10.30
2023-03-20T20:50:41.043Z,14.27
2023-03-20T20:53:10.472Z,15.00
2023-03-20T20:55:39.969Z,12.80
2023-03-20T20:58:11.778Z,9.53
2023-03-20T21:00:51.247Z,12.53
2023-03-20T21:03:21.211Z,10.53
2023-03-20T21:05:51.931Z,9.97
2023-03-20T21:08:20.995Z,13.87
2023-03-20T21:10:51.458Z,12.93
2023-03-20T21:13:21.186Z,11.67
2023-03-20T21:15:59.505Z,10.07
2023-03-20T21:18:29.706Z,12.57
2023-03-20T21:21:06.869Z,8.43
2023-03-20T21:23:36.709Z,12.87
2023-03-20T21:26:06.256Z,11.70
2023-03-20T21:28:36.326Z,9.70
2023-03-20T21:31:23.933Z,12.03
2023-03-20T21:33:55.366Z,13.93
2023-03-20T21:36:26.193Z,8.73
2023-03-20T21:39:08.296Z,13.33
2023-03-20T21:41:39.200Z,13.27
2023-03-20T21:44:17.725Z,13.43
2023-03-20T21:47:58.137Z,10.43
2023-03-20T21:53:06.794Z,13.60
2023-03-20T21:56:29.334Z,10.10
2023-03-20T21:58:51.043Z,11.50
2023-03-20T22:01:39.716Z,9.87
2023-03-20T22:04:49.163Z,16.37
2023-03-20T22:10:10.912Z,12.67
2023-03-20T22:13:08.602Z,11.90
2023-03-20T22:15:46.197Z,13.33
2023-03-20T22:21:30.046Z,16.20
2023-03-20T22:27:21.852Z,15.07
2023-03-20T22:38:29.390Z,15.43
2023-03-20T22:41:27.476Z,17.20
2023-03-20T22:46:42.159Z,17.63
2023-03-20T22:49:03.197Z,15.27
2023-03-20T22:51:36.930Z,18.37
2023-03-20T22:54:12.300Z,17.40
2023-03-20T22:56:41.270Z,14.80
2023-03-20T22:59:10.186Z,16.07
2023-03-20T23:01:39.138Z,16.50
2023-03-20T23:04:08.040Z,17.87
2023-03-20T23:06:36.853Z,21.83
2023-03-20T23:09:15.081Z,19.57
2023-03-20T23:11:45.906Z,20.73
2023-03-20T23:14:21.069Z,20.37
2023-03-20T23:16:50.687Z,16.77
2023-03-20T23:19:19.742Z,21.80
2023-03-20T23:21:48.367Z,21.17
2023-03-20T23:24:17.124Z,20.17
2023-03-20T23:26:47.719Z,18.07
2023-03-20T23:29:16.799Z,20.10
2023-03-20T23:31:45.421Z,16.77
2023-03-20T23:34:15.195Z,17.77
2023-03-20T23:36:44.699Z,18.60
2023-03-20T23:39:16.006Z,19.67
2023-03-20T23:44:36.250Z,22.83
2023-03-20T23:47:19.431Z,21.30
2023-03-20T23:49:48.726Z,22.97
2023-03-20T23:52:17.379Z,20.90
2023-03-20T23:54:46.021Z,22.47
2023-03-20T23:57:15.245Z,20.83
2023-03-20T23:59:47.270Z,22.43
